createdAt,value
2023-05-04T00:01:43.793Z,100673.13
2023-05-04T00:04:12.408Z,100671.59
2023-05-04T00:06:40.844Z,100669.16
2023-05-04T00:09:09.206Z,100672.09
2023-05-04T00:11:38.665Z,100662.00
2023-05-04T00:14:07.142Z,100664.66
2023-05-04T00:16:36.692Z,100659.78
2023-05-04T00:19:06.902Z,100657.34
2023-05-04T00:21:35.187Z,100654.00
2023-05-04T00:24:03.294Z,100648.97
2023-05-04T00:26:32.746Z,100649.97
2023-05-04T00:29:01.047Z,100650.03
2023-05-04T00:31:29.847Z,100646.59
2023-05-04T00:33:58.904Z,100645.91
2023-05-04T00:36:28.521Z,100647.75
2023-05-04T00:38:56.624Z,100646.06
2023-05-04T00:41:24.994Z,100645.31
2023-05-04T00:43:53.180Z,100646.16
2023-05-04T00:46:21.613Z,100638.44
2023-05-04T00:48:52.355Z,100643.16
2023-05-04T00:51:21.848Z,100644.63
2023-05-04T00:53:52.725Z,100642.78
2023-05-04T00:56:22.779Z,100641.88
2023-05-04T00:58:54.699Z,100632.44
2023-05-04T01:01:23.168Z,100639.59
2023-05-04T01:03:51.836Z,100635.91
2023-05-04T01:06:28.188Z,100628.84
2023-05-04T01:09:04.513Z,100629.66
2023-05-04T01:11:35.507Z,100630.13
2023-05-04T01:14:03.833Z,100633.00
2023-05-04T01:16:32.380Z,100636.56
2023-05-04T01:19:00.770Z,100632.31
2023-05-04T01:21:31.813Z,100626.00
2023-05-04T01:24:00.844Z,100620.97
2023-05-04T01:26:29.847Z,100621.56
2023-05-04T01:29:02.345Z,100617.94
2023-05-04T01:31:35.590Z,100619.00
2023-05-04T01:34:03.966Z,100616.56
2023-05-04T01:36:34.676Z,100621.88
2023-05-04T01:39:04.421Z,100627.44
2023-05-04T01:41:34.956Z,100621.56
2023-05-04T01:44:05.741Z,100622.75
2023-05-04T01:46:34.275Z,100623.66
2023-05-04T01:49:02.631Z,100621.56
2023-05-04T01:51:31.454Z,100628.13
2023-05-04T01:54:04.153Z,100625.84
2023-05-04T01:56:33.225Z,100624.31
2023-05-04T01:59:02.194Z,100636.25
2023-05-04T02:01:30.243Z,100628.09
2023-05-04T02:03:58.592Z,100626.63
2023-05-04T02:06:26.974Z,100625.34
2023-05-04T02:08:55.649Z,100622.16
2023-05-04T02:11:25.870Z,100628.16
2023-05-04T02:13:55.401Z,100624.81
2023-05-04T02:16:23.315Z,100626.94
2023-05-04T02:18:51.554Z,100627.81
2023-05-04T02:21:19.816Z,100619.66
2023-05-04T02:23:47.832Z,100629.13
2023-05-04T02:26:17.256Z,100626.22
2023-05-04T02:28:46.777Z,100622.69
2023-05-04T02:31:15.415Z,100628.09
2023-05-04T02:33:44.147Z,100620.53
2023-05-04T02:36:12.200Z,100620.03
2023-05-04T02:38:40.586Z,100620.91
2023-05-04T02:41:09.158Z,100617.69
2023-05-04T02:43:38.462Z,100622.16
2023-05-04T02:46:08.054Z,100616.06
2023-05-04T02:48:36.452Z,100617.13
2023-05-04T02:51:04.353Z,100625.88
2023-05-04T02:53:32.384Z,100624.19
2023-05-04T02:56:00.131Z,100619.91
2023-05-04T02:58:28.035Z,100615.94
2023-05-04T03:00:58.721Z,100614.34
2023-05-04T03:03:28.216Z,100610.09
2023-05-04T03:05:56.273Z,100605.25
2023-05-04T03:08:24.537Z,100618.91
2023-05-04T03:10:53.058Z,100612.31
2023-05-04T03:13:21.750Z,100616.63
2023-05-04T03:15:50.194Z,100618.53
2023-05-04T03:18:18.356Z,100618.31
2023-05-04T03:20:50.436Z,100620.91
2023-05-04T03:23:21.777Z,100611.47
2023-05-04T03:25:50.590Z,100613.28
2023-05-04T03:28:18.563Z,100611.69
2023-05-04T03:30:47.671Z,100610.91
2023-05-04T03:33:17.305Z,100606.41
2023-05-04T03:35:45.358Z,100602.97
2023-05-04T03:38:15.832Z,100606.50
2023-05-04T03:40:44.830Z,100597.81
2023-05-04T03:43:14.035Z,100594.34
2023-05-04T03:45:44.815Z,100592.66
2023-05-04T03:48:13.521Z,100592.59
2023-05-04T03:50:41.749Z,100590.78
2023-05-04T03:53:09.915Z,100576.09
2023-05-04T03:55:39.593Z,100586.34
2023-05-04T03:58:09.181Z,100584.03
2023-05-04T04:00:37.349Z,100586.63
2023-05-04T04:03:12.288Z,100583.34
2023-05-04T04:05:40.688Z,100587.53
2023-05-04T04:08:08.935Z,100584.38
2023-05-04T04:10:37.221Z,100591.38
2023-05-04T04:13:06.891Z,100595.66
2023-05-04T04:15:38.065Z,100593.84
2023-05-04T04:18:06.651Z,100598.16
2023-05-04T04:20:35.085Z,100591.19
2023-05-04T04:23:03.099Z,100601.16
2023-05-04T04:25:31.774Z,100598.13
2023-05-04T04:28:00.223Z,100594.25
2023-05-04T04:30:32.039Z,100595.25
2023-05-04T04:33:00.124Z,100591.25
2023-05-04T04:35:28.858Z,100593.03
2023-05-04T04:37:57.337Z,100588.72
2023-05-04T04:40:25.824Z,100599.88
2023-05-04T04:42:54.521Z,100600.22
2023-05-04T04:45:23.680Z,100607.91
2023-05-04T04:47:53.048Z,100605.91
2023-05-04T04:50:21.219Z,100611.84
2023-05-04T04:52:49.544Z,100607.28
2023-05-04T04:55:19.580Z,100616.06
2023-05-04T04:57:47.585Z,100618.50
2023-05-04T05:00:17.120Z,100621.09
2023-05-04T05:02:45.524Z,100620.19
2023-05-04T05:05:15.558Z,100625.66
2023-05-04T05:07:43.503Z,100621.69
2023-05-04T05:10:26.154Z,100629.66
2023-05-04T05:12:54.558Z,100628.25
2023-05-04T05:15:23.001Z,100625.34
2023-05-04T05:17:52.495Z,100633.16
2023-05-04T05:20:23.639Z,100638.75
2023-05-04T05:22:52.453Z,100635.22
2023-05-04T05:25:21.594Z,100637.97
2023-05-04T05:27:50.004Z,100639.88
2023-05-04T05:30:20.469Z,100639.13
2023-05-04T05:32:49.438Z,100641.47
2023-05-04T05:35:18.004Z,100640.88
2023-05-04T05:37:49.083Z,100637.59
2023-05-04T05:40:18.182Z,100638.59
2023-05-04T05:42:47.150Z,100649.56
2023-05-04T05:45:15.436Z,100645.06
2023-05-04T05:47:43.710Z,100640.91
2023-05-04T05:50:14.288Z,100640.78
2023-05-04T05:52:43.960Z,100643.75
2023-05-04T05:55:14.074Z,100640.91
2023-05-04T05:57:42.586Z,100631.81
2023-05-04T06:00:12.966Z,100635.16
2023-05-04T06:02:41.753Z,100634.63
2023-05-04T06:05:10.731Z,100632.75
2023-05-04T06:07:39.109Z,100639.09
2023-05-04T06:10:07.863Z,100633.97
2023-05-04T06:12:37.557Z,100638.88
2023-05-04T06:15:06.261Z,100634.22
2023-05-04T06:17:35.414Z,100642.75
2023-05-04T06:20:03.662Z,100634.09
2023-05-04T06:22:32.788Z,100637.97
2023-05-04T06:25:06.074Z,100635.13
2023-05-04T06:27:37.282Z,100647.56
2023-05-04T06:30:05.632Z,100638.88
2023-05-04T06:32:38.007Z,100636.81
2023-05-04T06:35:09.200Z,100631.09
2023-05-04T06:37:37.958Z,100622.94
2023-05-04T06:40:07.307Z,100627.94
2023-05-04T06:42:35.552Z,100635.53
2023-05-04T06:45:05.215Z,100634.19
2023-05-04T06:47:35.746Z,100631.16
2023-05-04T06:50:09.415Z,100634.84
2023-05-04T06:52:39.195Z,100629.16
2023-05-04T06:55:08.322Z,100641.50
2023-05-04T06:57:36.064Z,100644.41
2023-05-04T07:00:06.615Z,100645.66
2023-05-04T07:02:34.856Z,100639.94
2023-05-04T07:05:03.651Z,100627.31
2023-05-04T07:07:32.284Z,100631.31
2023-05-04T07:10:01.305Z,100629.38
2023-05-04T07:12:30.372Z,100639.50
2023-05-04T07:14:58.770Z,100634.91
2023-05-04T07:17:29.882Z,100633.16
2023-05-04T07:19:59.384Z,100631.50
2023-05-04T07:22:27.176Z,100632.34
2023-05-04T07:24:57.362Z,100620.13
2023-05-04T07:27:25.309Z,100624.06
2023-05-04T07:29:54.735Z,100625.16
2023-05-04T07:32:22.743Z,100614.94
2023-05-04T07:34:52.218Z,100617.06
2023-05-04T07:37:20.485Z,100611.69
2023-05-04T07:39:48.533Z,100620.31
2023-05-04T07:42:17.647Z,100620.91
2023-05-04T07:44:46.334Z,100618.69
2023-05-04T07:47:13.922Z,100606.16
2023-05-04T07:49:42.152Z,100609.72
2023-05-04T07:52:11.402Z,100609.00
2023-05-04T07:54:40.107Z,100599.81
2023-05-04T07:57:09.901Z,100602.19
2023-05-04T07:59:37.922Z,100607.94
2023-05-04T08:02:07.296Z,100607.97
2023-05-04T08:04:35.536Z,100602.38
2023-05-04T08:07:03.342Z,100606.13
2023-05-04T08:09:32.532Z,100597.69
2023-05-04T08:12:00.317Z,100593.75
2023-05-04T08:14:29.742Z,100586.31
2023-05-04T08:16:57.588Z,100585.22
2023-05-04T08:19:26.253Z,100580.31
2023-05-04T08:21:54.374Z,100581.44
2023-05-04T08:24:22.445Z,100574.84
2023-05-04T08:27:03.652Z,100576.59
2023-05-04T08:29:31.909Z,100576.31
2023-05-04T08:32:00.931Z,100573.81
2023-05-04T08:34:28.892Z,100577.97
2023-05-04T08:36:56.488Z,100565.47
2023-05-04T08:39:26.723Z,100572.03
2023-05-04T08:41:55.877Z,100567.31
2023-05-04T08:44:24.341Z,100562.75
2023-05-04T08:46:53.496Z,100569.91
2023-05-04T08:49:22.778Z,100561.47
2023-05-04T08:51:53.368Z,100569.56
2023-05-04T08:54:22.449Z,100556.09
2023-05-04T08:56:52.383Z,100557.56
2023-05-04T08:59:22.536Z,100553.19
2023-05-04T09:01:59.076Z,100546.38
2023-05-04T09:04:29.210Z,100548.44
2023-05-04T09:06:59.148Z,100548.81
2023-05-04T09:09:30.010Z,100543.75
2023-05-04T09:11:59.752Z,100546.59
2023-05-04T09:14:35.845Z,100537.28
2023-05-04T09:17:07.059Z,100537.41
2023-05-04T09:19:35.596Z,100520.44
2023-05-04T09:22:03.928Z,100527.91
2023-05-04T09:24:31.853Z,100523.78
2023-05-04T09:27:09.381Z,100527.06
2023-05-04T09:29:40.764Z,100530.00
2023-05-04T09:32:16.890Z,100522.34
2023-05-04T09:34:48.198Z,100526.00
2023-05-04T09:37:18.643Z,100533.06
2023-05-04T09:39:54.807Z,100530.72
2023-05-04T09:42:23.551Z,100530.72
2023-05-04T09:45:08.581Z,100535.09
2023-05-04T09:47:38.251Z,100528.66
2023-05-04T09:50:12.882Z,100534.78
2023-05-04T09:52:42.879Z,100516.59
2023-05-04T09:55:13.746Z,100526.91
2023-05-04T09:57:42.526Z,100517.56
2023-05-04T10:00:16.265Z,100524.22
2023-05-04T10:02:44.893Z,100520.91
2023-05-04T10:05:17.292Z,100513.75
2023-05-04T10:07:47.538Z,100519.50
2023-05-04T10:10:16.633Z,100513.78
2023-05-04T10:12:47.333Z,100516.38
2023-05-04T10:15:17.850Z,100506.50
2023-05-04T10:18:00.293Z,100513.91
2023-05-04T10:20:34.502Z,100502.22
2023-05-04T10:23:26.193Z,100512.91
2023-05-04T10:26:18.692Z,100499.25
2023-05-04T10:28:52.234Z,100500.78
2023-05-04T10:31:23.347Z,100501.53
2023-05-04T10:33:51.570Z,100490.31
2023-05-04T10:36:19.197Z,100479.22
2023-05-04T10:38:47.329Z,100486.75
2023-05-04T10:41:15.948Z,100480.53
2023-05-04T10:43:48.698Z,100479.09
2023-05-04T10:46:17.209Z,100478.91
2023-05-04T10:48:46.639Z,100477.31
2023-05-04T10:51:23.181Z,100476.81
2023-05-04T10:53:52.813Z,100466.53
2023-05-04T10:56:22.955Z,100466.75
2023-05-04T10:58:50.823Z,100449.16
2023-05-04T11:01:18.593Z,100447.81
2023-05-04T11:03:50.762Z,100432.13
2023-05-04T11:06:23.374Z,100430.19
2023-05-04T11:09:00.126Z,100426.41
2023-05-04T11:11:30.763Z,100424.38
2023-05-04T11:13:58.633Z,100409.63
2023-05-04T11:16:28.336Z,100400.03
2023-05-04T11:19:08.649Z,100407.88
2023-05-04T11:21:36.757Z,100392.97
2023-05-04T11:24:04.930Z,100399.69
2023-05-04T11:26:35.001Z,100398.94
2023-05-04T11:29:12.721Z,100398.03
2023-05-04T11:31:40.924Z,100396.53
2023-05-04T11:34:12.322Z,100395.63
2023-05-04T11:36:40.786Z,100385.84
2023-05-04T11:39:09.076Z,100373.09
2023-05-04T11:41:37.660Z,100367.31
2023-05-04T11:44:10.176Z,100362.94
2023-05-04T11:46:38.324Z,100353.16
2023-05-04T11:49:06.990Z,100355.88
2023-05-04T11:51:36.536Z,100349.50
2023-05-04T11:54:07.128Z,100350.38
2023-05-04T11:57:04.352Z,100345.50
2023-05-04T11:59:33.517Z,100355.50
2023-05-04T12:02:01.423Z,100350.22
2023-05-04T12:04:31.879Z,100342.31
2023-05-04T12:07:01.784Z,100349.91
2023-05-04T12:09:29.743Z,100348.94
2023-05-04T12:11:57.456Z,100336.94
2023-05-04T12:14:28.318Z,100341.94
2023-05-04T12:16:57.848Z,100340.38
2023-05-04T12:19:26.078Z,100338.97
2023-05-04T12:21:58.394Z,100330.44
2023-05-04T12:24:28.536Z,100341.00
2023-05-04T12:26:56.999Z,100332.03
2023-05-04T12:29:25.273Z,100319.03
2023-05-04T12:31:53.123Z,100315.53
2023-05-04T12:34:23.523Z,100313.00
2023-05-04T12:36:54.577Z,100302.22
2023-05-04T12:39:22.359Z,100291.84
2023-05-04T12:41:53.947Z,100292.53
2023-05-04T12:44:22.831Z,100305.44
2023-05-04T12:46:50.568Z,100293.78
2023-05-04T12:49:18.612Z,100295.69
2023-05-04T12:51:46.598Z,100296.31
2023-05-04T12:54:16.905Z,100294.41
2023-05-04T12:56:44.630Z,100296.38
2023-05-04T12:59:13.837Z,100286.66
2023-05-04T13:01:42.381Z,100278.91
2023-05-04T13:04:10.031Z,100269.91
2023-05-04T13:06:38.109Z,100270.34
2023-05-04T13:09:06.873Z,100274.16
2023-05-04T13:11:36.005Z,100268.31
2023-05-04T13:14:03.883Z,100272.78
2023-05-04T13:16:33.662Z,100269.41
2023-05-04T13:19:01.393Z,100273.13
2023-05-04T13:21:29.061Z,100270.63
2023-05-04T13:23:57.663Z,100266.91
2023-05-04T13:26:25.715Z,100267.09
2023-05-04T13:28:53.622Z,100254.94
2023-05-04T13:31:22.115Z,100249.94
2023-05-04T13:33:51.247Z,100247.22
2023-05-04T13:36:19.368Z,100240.16
2023-05-04T13:38:47.166Z,100236.91
2023-05-04T13:41:15.293Z,100231.50
2023-05-04T13:43:43.928Z,100239.84
2023-05-04T13:46:12.603Z,100236.06
2023-05-04T13:48:40.418Z,100238.94
2023-05-04T13:51:10.026Z,100226.59
2023-05-04T13:53:38.054Z,100212.06
2023-05-04T13:56:06.605Z,100206.97
2023-05-04T13:58:41.853Z,100202.03
2023-05-04T14:01:10.665Z,100206.84
2023-05-04T14:03:39.479Z,100200.03
2023-05-04T14:06:07.626Z,100191.28
2023-05-04T14:08:36.651Z,100184.38
2023-05-04T14:11:04.627Z,100175.38
2023-05-04T14:13:32.412Z,100178.91
2023-05-04T14:16:01.330Z,100176.66
2023-05-04T14:18:32.197Z,100170.53
2023-05-04T14:21:00.115Z,100157.53
2023-05-04T14:23:28.933Z,100156.03
2023-05-04T14:25:58.234Z,100152.44
2023-05-04T14:28:27.002Z,100147.47
2023-05-04T14:30:55.015Z,100152.06
2023-05-04T14:33:22.783Z,100155.28
2023-05-04T14:35:50.623Z,100148.88
2023-05-04T14:38:18.845Z,100133.25
2023-05-04T14:40:48.992Z,100141.84
2023-05-04T14:43:19.456Z,100138.06
2023-05-04T14:45:47.583Z,100129.94
2023-05-04T14:48:16.259Z,100128.13
2023-05-04T14:50:44.249Z,100121.63
2023-05-04T14:53:12.277Z,100130.38
2023-05-04T14:55:42.125Z,100120.69
2023-05-04T14:58:10.819Z,100114.06
2023-05-04T15:00:41.047Z,100109.53
2023-05-04T15:03:10.084Z,100107.97
2023-05-04T15:05:38.483Z,100101.91
2023-05-04T15:08:07.051Z,100114.34
2023-05-04T15:10:36.707Z,100103.91
2023-05-04T15:13:05.212Z,100104.78
2023-05-04T15:15:33.551Z,100111.00
2023-05-04T15:18:03.306Z,100110.81
2023-05-04T15:20:32.593Z,100104.38
2023-05-04T15:23:03.485Z,100107.22
2023-05-04T15:25:32.875Z,100111.38
2023-05-04T15:28:00.983Z,100115.41
2023-05-04T15:30:29.812Z,100123.63
2023-05-04T15:32:57.823Z,100116.25
2023-05-04T15:35:27.221Z,100120.69
2023-05-04T15:37:55.597Z,100115.69
2023-05-04T15:40:24.518Z,100108.75
2023-05-04T15:42:52.974Z,100105.38
2023-05-04T15:45:21.344Z,100098.84
2023-05-04T15:47:51.873Z,100094.09
2023-05-04T15:50:20.829Z,100095.75
2023-05-04T15:52:50.102Z,100097.16
2023-05-04T15:55:25.825Z,100093.16
2023-05-04T15:57:54.324Z,100085.50
2023-05-04T16:00:22.623Z,100080.53
2023-05-04T16:02:51.041Z,100075.97
2023-05-04T16:05:24.272Z,100076.25
2023-05-04T16:07:53.622Z,100070.03
2023-05-04T16:10:22.352Z,100072.03
2023-05-04T16:12:50.108Z,100065.97
2023-05-04T16:15:20.678Z,100058.47
2023-05-04T16:17:48.355Z,100045.44
2023-05-04T16:20:16.237Z,100043.09
2023-05-04T16:22:44.102Z,100032.06
2023-05-04T16:25:13.304Z,100028.66
2023-05-04T16:27:41.480Z,100035.56
2023-05-04T16:30:10.039Z,100024.63
2023-05-04T16:32:39.038Z,100023.72
2023-05-04T16:35:07.872Z,100024.22
2023-05-04T16:37:37.435Z,100038.06
2023-05-04T16:40:15.259Z,100029.19
2023-05-04T16:42:43.287Z,100043.38
2023-05-04T16:45:15.469Z,100049.63
2023-05-04T16:47:43.576Z,100058.34
2023-05-04T16:50:12.522Z,100042.91
2023-05-04T16:52:41.356Z,100041.72
2023-05-04T16:55:11.864Z,100041.63
2023-05-04T16:57:42.469Z,100029.25
2023-05-04T17:00:12.024Z,100028.91
2023-05-04T17:02:40.068Z,100023.84
2023-05-04T17:05:10.322Z,100026.78
2023-05-04T17:07:39.980Z,100008.09
2023-05-04T17:10:08.596Z,100006.63
2023-05-04T17:12:36.943Z,100007.50
2023-05-04T17:15:06.575Z,100000.16
2023-05-04T17:17:34.598Z,100006.59
2023-05-04T17:20:02.420Z,99998.16
2023-05-04T17:22:31.148Z,100009.44
2023-05-04T17:24:58.807Z,100013.94
2023-05-04T17:27:26.709Z,100013.09
2023-05-04T17:29:54.489Z,100017.22
2023-05-04T17:32:25.769Z,100011.13
2023-05-04T17:34:53.815Z,100015.19
2023-05-04T17:37:21.721Z,100008.63
2023-05-04T17:39:49.233Z,100013.59
2023-05-04T17:42:17.154Z,100006.50
2023-05-04T17:44:44.767Z,100013.91
2023-05-04T17:47:12.548Z,100013.16
2023-05-04T17:49:42.070Z,100017.00
2023-05-04T17:52:12.033Z,100012.91
2023-05-04T17:54:41.873Z,100018.19
2023-05-04T17:57:18.623Z,100018.50
2023-05-04T17:59:47.025Z,100017.97
2023-05-04T18:02:14.784Z,100016.41
2023-05-04T18:04:44.548Z,100018.50
2023-05-04T18:07:12.318Z,100021.41
2023-05-04T18:09:40.359Z,100022.34
2023-05-04T18:12:09.100Z,100030.72
2023-05-04T18:14:36.929Z,100022.84
2023-05-04T18:17:04.870Z,100028.78
2023-05-04T18:19:34.522Z,100021.66
2023-05-04T18:22:03.669Z,100033.53
2023-05-04T18:24:33.837Z,100028.91
2023-05-04T18:27:03.755Z,100027.50
2023-05-04T18:29:32.208Z,100020.63
2023-05-04T18:32:01.277Z,100028.81
2023-05-04T18:34:29.494Z,100032.19
2023-05-04T18:36:57.207Z,100036.78
2023-05-04T18:39:26.333Z,100040.28
2023-05-04T18:41:54.645Z,100041.81
2023-05-04T18:44:24.696Z,100056.94
2023-05-04T18:46:52.518Z,100057.78
2023-05-04T18:49:20.292Z,100055.94
2023-05-04T18:51:48.597Z,100061.84
2023-05-04T18:54:17.387Z,100069.41
2023-05-04T18:56:46.471Z,100063.44
2023-05-04T18:59:16.856Z,100064.41
2023-05-04T19:01:44.692Z,100069.78
2023-05-04T19:04:12.811Z,100068.22
2023-05-04T19:06:40.887Z,100071.63
2023-05-04T19:09:09.007Z,100074.13
2023-05-04T19:11:36.796Z,100080.88
2023-05-04T19:14:06.021Z,100081.03
2023-05-04T19:16:33.995Z,100081.44
2023-05-04T19:19:02.210Z,100083.72
2023-05-04T19:21:30.369Z,100083.13
2023-05-04T19:23:58.150Z,100081.75
2023-05-04T19:26:26.073Z,100081.84
2023-05-04T19:28:54.086Z,100094.13
2023-05-04T19:31:26.314Z,100087.72
2023-05-04T19:33:54.092Z,100088.47
2023-05-04T19:36:22.403Z,100096.66
2023-05-04T19:38:50.280Z,100096.97
2023-05-04T19:41:18.293Z,100098.09
2023-05-04T19:43:46.207Z,100104.34
2023-05-04T19:46:13.962Z,100094.44
2023-05-04T19:48:43.726Z,100097.41
2023-05-04T19:51:11.350Z,100090.63
2023-05-04T19:53:39.239Z,100090.97
2023-05-04T19:56:09.577Z,100085.25
2023-05-04T19:58:38.953Z,100091.06
2023-05-04T20:01:06.746Z,100090.16
2023-05-04T20:03:35.278Z,100089.22
2023-05-04T20:06:04.724Z,100084.97
2023-05-04T20:08:32.685Z,100085.28
2023-05-04T20:11:00.711Z,100088.50
2023-05-04T20:13:31.398Z,100086.38
2023-05-04T20:16:04.455Z,100082.75
2023-05-04T20:18:32.161Z,100092.03
2023-05-04T20:21:00.046Z,100091.09
2023-05-04T20:23:29.076Z,100092.03
2023-05-04T20:25:57.251Z,100086.91
2023-05-04T20:28:24.983Z,100090.91
2023-05-04T20:30:52.939Z,100090.34
2023-05-04T20:33:20.717Z,100087.88
2023-05-04T20:35:50.120Z,100088.16
2023-05-04T20:38:18.208Z,100080.84
2023-05-04T20:40:47.377Z,100090.09
2023-05-04T20:43:15.262Z,100085.69
2023-05-04T20:45:42.862Z,100083.91
2023-05-04T20:48:10.964Z,100084.84
2023-05-04T20:50:39.837Z,100082.78
2023-05-04T20:53:07.497Z,100087.75
2023-05-04T20:55:36.254Z,100085.41
2023-05-04T20:58:14.133Z,100078.38
2023-05-04T21:00:42.100Z,100072.47
2023-05-04T21:03:09.956Z,100072.59
2023-05-04T21:05:42.130Z,100069.13
2023-05-04T21:08:09.940Z,100062.94
2023-05-04T21:10:38.227Z,100060.31
2023-05-04T21:13:07.424Z,100065.00
2023-05-04T21:15:36.256Z,100065.97
2023-05-04T21:18:06.957Z,100061.81
2023-05-04T21:20:34.632Z,100063.84
2023-05-04T21:23:02.946Z,100059.88
2023-05-04T21:25:30.895Z,100060.44
2023-05-04T21:27:58.699Z,100067.88
2023-05-04T21:30:28.020Z,100056.84
2023-05-04T21:32:56.237Z,100065.84
2023-05-04T21:35:24.650Z,100058.13
2023-05-04T21:37:52.400Z,100066.66
2023-05-04T21:40:21.719Z,100059.38
2023-05-04T21:42:49.754Z,100062.38
2023-05-04T21:45:19.586Z,100058.69
2023-05-04T21:47:49.037Z,100057.97
2023-05-04T21:50:17.871Z,100065.69
2023-05-04T21:52:45.912Z,100065.13
2023-05-04T21:55:13.939Z,100065.31
2023-05-04T21:57:42.221Z,100064.28
2023-05-04T22:00:12.689Z,100054.41
2023-05-04T22:02:40.643Z,100059.50
2023-05-04T22:05:11.050Z,100061.75
2023-05-04T22:07:39.085Z,100067.16
2023-05-04T22:10:08.221Z,100064.19
2023-05-04T22:12:36.616Z,100058.75
2023-05-04T22:15:04.987Z,100063.94
2023-05-04T22:17:38.965Z,100062.25
2023-05-04T22:20:08.070Z,100062.50
2023-05-04T22:22:37.537Z,100056.19
2023-05-04T22:25:06.123Z,100061.78
2023-05-04T22:27:34.000Z,100058.81
2023-05-04T22:30:01.995Z,100055.09
2023-05-04T22:32:30.795Z,100060.53
2023-05-04T22:34:58.785Z,100055.38
2023-05-04T22:37:26.932Z,100059.78
2023-05-04T22:39:56.808Z,100051.88
2023-05-04T22:42:24.713Z,100057.84
2023-05-04T22:44:52.461Z,100061.00
2023-05-04T22:47:20.200Z,100059.38
2023-05-04T22:49:48.012Z,100066.50
2023-05-04T22:52:16.035Z,100071.63
2023-05-04T22:54:43.742Z,100066.38
2023-05-04T22:57:15.300Z,100066.97
2023-05-04T22:59:43.254Z,100069.56
2023-05-04T23:02:12.256Z,100071.19
2023-05-04T23:04:44.015Z,100067.38
2023-05-04T23:07:12.344Z,100066.69
2023-05-04T23:09:42.545Z,100062.19
2023-05-04T23:12:10.464Z,100069.41
2023-05-04T23:14:39.575Z,100071.56
2023-05-04T23:17:07.699Z,100069.22
2023-05-04T23:19:35.672Z,100070.31
2023-05-04T23:22:03.244Z,100065.19
2023-05-04T23:24:31.099Z,100071.03
2023-05-04T23:26:58.885Z,100069.56
2023-05-04T23:29:27.145Z,100071.78
2023-05-04T23:31:56.629Z,100064.34
2023-05-04T23:34:25.174Z,100059.38
2023-05-04T23:36:55.626Z,100064.88
2023-05-04T23:39:23.466Z,100064.50
2023-05-04T23:41:54.189Z,100061.41
2023-05-04T23:44:22.654Z,100056.22
2023-05-04T23:46:50.745Z,100065.09
2023-05-04T23:49:19.864Z,100057.50
2023-05-04T23:51:50.150Z,100055.81
2023-05-04T23:54:17.935Z,100052.84
2023-05-04T23:56:45.628Z,100059.84
2023-05-04T23:59:13.126Z,100048.28
